createdAt,value
2018-10-12T00:00:08.783Z,100473.08
2018-10-12T00:02:35.672Z,100472.26
2018-10-12T00:05:05.811Z,100472.09
2018-10-12T00:07:36.083Z,100474.92
2018-10-12T00:10:03.101Z,100477.20
2018-10-12T00:12:30.041Z,100471.95
2018-10-12T00:15:00.560Z,100456.48
2018-10-12T00:17:27.711Z,100467.96
2018-10-12T00:19:54.787Z,100466.20
2018-10-12T00:22:21.671Z,100471.03
2018-10-12T00:24:50.004Z,100476.33
2018-10-12T00:27:16.955Z,100474.21
2018-10-12T00:29:43.919Z,100474.01
2018-10-12T00:32:10.891Z,100468.55
2018-10-12T00:34:37.858Z,100470.81
2018-10-12T00:37:04.751Z,100468.30
2018-10-12T00:39:31.716Z,100469.14
2018-10-12T00:41:58.655Z,100469.09
2018-10-12T00:44:25.539Z,100475.05
2018-10-12T00:46:52.494Z,100473.38
2018-10-12T00:49:19.375Z,100478.41
2018-10-12T00:51:47.227Z,100478.79
2018-10-12T00:54:14.136Z,100477.00
2018-10-12T00:56:41.028Z,100477.28
2018-10-12T00:59:07.945Z,100484.11
2018-10-12T01:01:34.847Z,100484.44
2018-10-12T01:04:01.811Z,100484.41
2018-10-12T01:06:28.777Z,100483.14
2018-10-12T01:08:56.559Z,100485.28
2018-10-12T01:11:23.511Z,100492.49
2018-10-12T01:13:50.402Z,100493.63
2018-10-12T01:16:17.261Z,100488.27
2018-10-12T01:18:44.143Z,100493.23
2018-10-12T01:21:11.019Z,100501.89
2018-10-12T01:23:38.028Z,100499.46
2018-10-12T01:26:04.960Z,100497.79
2018-10-12T01:28:31.824Z,100502.38
2018-10-12T01:30:59.032Z,100506.09
2018-10-12T01:33:26.107Z,100500.38
2018-10-12T01:35:53.035Z,100510.18
2018-10-12T01:38:19.915Z,100513.82
2018-10-12T01:40:46.891Z,100511.03
2018-10-12T01:43:13.855Z,100516.44
2018-10-12T01:45:40.717Z,100518.41
2018-10-12T01:48:08.675Z,100520.71
2018-10-12T01:50:35.627Z,100522.36
2018-10-12T01:53:04.587Z,100520.88
2018-10-12T01:55:31.487Z,100519.73
2018-10-12T01:57:58.347Z,100523.98
2018-10-12T02:00:25.303Z,100521.84
2018-10-12T02:02:52.183Z,100524.11
2018-10-12T02:05:19.163Z,100528.37
2018-10-12T02:07:46.120Z,100530.03
2018-10-12T02:10:13.000Z,100532.00
2018-10-12T02:12:39.996Z,100544.30
2018-10-12T02:15:06.939Z,100543.97
2018-10-12T02:17:33.927Z,100545.91
2018-10-12T02:20:00.860Z,100548.53
2018-10-12T02:22:27.747Z,100549.20
2018-10-12T02:24:54.729Z,100548.53
2018-10-12T02:27:21.668Z,100553.78
2018-10-12T02:29:48.555Z,100559.67
2018-10-12T02:32:15.407Z,100557.36
2018-10-12T02:34:42.291Z,100559.33
2018-10-12T02:37:09.252Z,100558.04
2018-10-12T02:39:36.131Z,100555.39
2018-10-12T02:42:03.085Z,100559.52
2018-10-12T02:44:29.991Z,100555.42
2018-10-12T02:46:56.957Z,100552.95
2018-10-12T02:49:23.907Z,100541.66
2018-10-12T02:51:50.775Z,100549.84
2018-10-12T02:54:17.792Z,100554.92
2018-10-12T02:56:44.719Z,100557.86
2018-10-12T02:59:11.574Z,100555.74
2018-10-12T03:01:38.434Z,100560.80
2018-10-12T03:04:05.352Z,100569.81
2018-10-12T03:06:32.302Z,100555.58
2018-10-12T03:08:59.276Z,100563.23
2018-10-12T03:11:26.253Z,100568.50
2018-10-12T03:13:53.198Z,100566.17
2018-10-12T03:16:22.183Z,100561.73
2018-10-12T03:18:49.087Z,100565.52
2018-10-12T03:21:15.959Z,100566.53
2018-10-12T03:23:42.839Z,100570.11
2018-10-12T03:26:09.824Z,100564.05
2018-10-12T03:28:37.080Z,100566.42
2018-10-12T03:31:04.444Z,100561.12
2018-10-12T03:33:31.927Z,100570.90
2018-10-12T03:35:59.245Z,100583.03
2018-10-12T03:38:26.252Z,100584.88
2018-10-12T03:40:53.160Z,100578.63
2018-10-12T03:43:20.024Z,100584.81
2018-10-12T03:45:46.900Z,100596.66
2018-10-12T03:48:13.871Z,100591.41
2018-10-12T03:50:40.837Z,100597.98
2018-10-12T03:53:09.332Z,100603.21
2018-10-12T03:55:36.261Z,100609.27
2018-10-12T03:58:03.183Z,100624.97
2018-10-12T04:00:30.077Z,100616.77
2018-10-12T04:02:57.008Z,100617.95
2018-10-12T04:05:23.909Z,100622.83
2018-10-12T04:07:51.779Z,100617.45
2018-10-12T04:10:18.647Z,100625.15
2018-10-12T04:12:46.549Z,100639.36
2018-10-12T04:15:13.533Z,100642.44
2018-10-12T04:17:40.555Z,100635.94
2018-10-12T04:20:07.639Z,100642.41
2018-10-12T04:22:34.535Z,100638.91
2018-10-12T04:25:02.408Z,100648.66
2018-10-12T04:27:30.646Z,100654.02
2018-10-12T04:29:57.599Z,100652.06
2018-10-12T04:32:24.556Z,100658.41
2018-10-12T04:34:53.471Z,100664.74
2018-10-12T04:37:20.433Z,100665.39
2018-10-12T04:40:01.861Z,100666.20
2018-10-12T04:42:28.748Z,100672.25
2018-10-12T04:44:56.978Z,100662.29
2018-10-12T04:47:31.125Z,100669.80
2018-10-12T04:49:59.563Z,100676.22
2018-10-12T04:52:27.619Z,100684.95
2018-10-12T04:54:54.565Z,100692.71
2018-10-12T04:57:21.519Z,100700.84
2018-10-12T04:59:48.535Z,100708.53
2018-10-12T05:02:15.448Z,100712.44
2018-10-12T05:04:42.330Z,100707.09
2018-10-12T05:07:09.291Z,100700.80
2018-10-12T05:09:36.171Z,100709.81
2018-10-12T05:12:03.159Z,100702.89
2018-10-12T05:14:30.131Z,100702.53
2018-10-12T05:16:57.124Z,100704.47
2018-10-12T05:19:24.031Z,100705.14
2018-10-12T05:21:50.955Z,100709.06
2018-10-12T05:24:22.834Z,100699.52
2018-10-12T05:26:50.689Z,100712.52
2018-10-12T05:29:17.582Z,100722.63
2018-10-12T05:31:44.565Z,100747.41
2018-10-12T05:34:11.427Z,100757.40
2018-10-12T05:36:38.379Z,100756.89
2018-10-12T05:39:07.744Z,100749.29
2018-10-12T05:41:35.599Z,100751.60
2018-10-12T05:44:02.832Z,100748.39
2018-10-12T05:46:30.822Z,100763.25
2018-10-12T05:49:09.273Z,100763.41
2018-10-12T05:51:36.192Z,100763.77
2018-10-12T05:54:03.163Z,100775.52
2018-10-12T05:56:32.000Z,100777.32
2018-10-12T05:58:59.047Z,100774.81
2018-10-12T06:01:25.978Z,100771.91
2018-10-12T06:03:52.874Z,100761.66
2018-10-12T06:06:20.795Z,100771.28
2018-10-12T06:08:47.784Z,100778.73
2018-10-12T06:11:14.833Z,100779.63
2018-10-12T06:13:49.414Z,100783.30
2018-10-12T06:16:16.342Z,100796.22
2018-10-12T06:18:43.211Z,100785.98
2018-10-12T06:21:10.211Z,100785.02
2018-10-12T06:23:37.214Z,100794.38
2018-10-12T06:26:04.657Z,100803.87
2018-10-12T06:28:31.604Z,100816.51
2018-10-12T06:30:58.594Z,100828.96
2018-10-12T06:33:26.459Z,100837.71
2018-10-12T06:35:53.304Z,100841.54
2018-10-12T06:38:20.196Z,100845.47
2018-10-12T06:40:47.251Z,100853.87
2018-10-12T06:43:14.086Z,100859.00
2018-10-12T06:45:41.023Z,100859.49
2018-10-12T06:48:07.958Z,100842.44
2018-10-12T06:50:39.384Z,100835.23
2018-10-12T06:53:06.764Z,100833.84
2018-10-12T06:55:43.326Z,100842.00
2018-10-12T06:58:13.887Z,100842.98
2018-10-12T07:00:40.905Z,100845.77
2018-10-12T07:03:07.905Z,100851.96
2018-10-12T07:05:38.150Z,100848.72
2018-10-12T07:08:05.012Z,100841.13
2018-10-12T07:10:32.840Z,100856.62
2018-10-12T07:13:00.815Z,100858.02
2018-10-12T07:15:28.735Z,100854.25
2018-10-12T07:17:55.608Z,100852.94
2018-10-12T07:20:24.531Z,100855.98
2018-10-12T07:22:51.552Z,100858.45
2018-10-12T07:25:18.490Z,100858.50
2018-10-12T07:27:45.442Z,100854.91
2018-10-12T07:30:12.412Z,100854.91
2018-10-12T07:32:40.328Z,100859.99
2018-10-12T07:35:07.299Z,100863.75
2018-10-12T07:37:34.301Z,100864.09
2018-10-12T07:40:01.218Z,100864.89
2018-10-12T07:42:28.129Z,100869.33
2018-10-12T07:44:55.057Z,100875.53
2018-10-12T07:47:22.001Z,100878.79
2018-10-12T07:49:49.187Z,100885.34
2018-10-12T07:52:16.099Z,100893.86
2018-10-12T07:54:43.067Z,100897.09
2018-10-12T07:57:10.633Z,100907.38
2018-10-12T07:59:38.079Z,100909.78
2018-10-12T08:02:06.604Z,100901.80
2018-10-12T08:04:35.744Z,100904.15
2018-10-12T08:07:02.895Z,100913.74
2018-10-12T08:09:30.100Z,100915.30
2018-10-12T08:12:00.127Z,100917.11
2018-10-12T08:14:27.132Z,100921.25
2018-10-12T08:16:55.120Z,100922.36
2018-10-12T08:19:22.067Z,100920.05
2018-10-12T08:21:51.008Z,100922.80
2018-10-12T08:24:17.958Z,100918.48
2018-10-12T08:26:46.916Z,100918.22
2018-10-12T08:29:13.890Z,100921.63
2018-10-12T08:31:40.847Z,100917.02
2018-10-12T08:34:08.711Z,100912.05
2018-10-12T08:36:36.888Z,100914.81
2018-10-12T08:39:06.979Z,100919.77
2018-10-12T08:41:44.279Z,100911.78
2018-10-12T08:44:11.139Z,100903.31
2018-10-12T08:46:38.103Z,100907.02
2018-10-12T08:49:05.996Z,100908.68
2018-10-12T08:51:33.480Z,100911.55
2018-10-12T08:54:01.396Z,100914.27
2018-10-12T08:56:28.438Z,100911.47
2018-10-12T08:58:56.336Z,100911.62
2018-10-12T09:01:23.215Z,100913.58
2018-10-12T09:03:50.215Z,100915.92
2018-10-12T09:06:17.159Z,100921.48
2018-10-12T09:08:44.220Z,100916.81
2018-10-12T09:11:11.092Z,100917.98
2018-10-12T09:13:41.161Z,100916.23
2018-10-12T09:16:08.201Z,100918.59
2018-10-12T09:18:35.216Z,100914.98
2018-10-12T09:21:02.206Z,100917.93
2018-10-12T09:23:29.339Z,100919.38
2018-10-12T09:25:56.291Z,100917.59
2018-10-12T09:28:24.186Z,100906.86
2018-10-12T09:30:51.097Z,100903.19
2018-10-12T09:33:18.022Z,100904.57
2018-10-12T09:35:44.980Z,100911.63
2018-10-12T09:38:11.873Z,100913.01
2018-10-12T09:40:38.892Z,100908.33
2018-10-12T09:43:07.113Z,100912.63
2018-10-12T09:45:34.167Z,100907.99
2018-10-12T09:48:01.224Z,100914.98
2018-10-12T09:50:28.314Z,100923.18
2018-10-12T09:52:55.164Z,100918.80
2018-10-12T09:55:23.143Z,100920.56
2018-10-12T09:57:50.091Z,100917.61
2018-10-12T10:00:23.103Z,100920.31
2018-10-12T10:02:55.774Z,100915.79
2018-10-12T10:05:22.703Z,100911.30
2018-10-12T10:07:49.791Z,100914.97
2018-10-12T10:10:16.614Z,100909.10
2018-10-12T10:12:43.531Z,100908.85
2018-10-12T10:15:10.394Z,100913.76
2018-10-12T10:17:37.400Z,100908.66
2018-10-12T10:20:05.496Z,100915.07
2018-10-12T10:22:32.391Z,100909.14
2018-10-12T10:24:59.316Z,100904.00
2018-10-12T10:27:27.255Z,100905.16
2018-10-12T10:29:54.131Z,100907.58
2018-10-12T10:32:21.173Z,100912.63
2018-10-12T10:34:48.096Z,100917.94
2018-10-12T10:37:15.065Z,100916.35
2018-10-12T10:39:42.012Z,100916.02
2018-10-12T10:42:08.908Z,100907.55
2018-10-12T10:44:35.987Z,100902.14
2018-10-12T10:47:02.981Z,100902.30
2018-10-12T10:49:29.875Z,100910.44
2018-10-12T10:52:00.479Z,100904.55
2018-10-12T10:54:27.466Z,100900.62
2018-10-12T10:57:01.049Z,100895.31
2018-10-12T10:59:28.146Z,100887.89
2018-10-12T11:01:55.107Z,100888.13
2018-10-12T11:04:21.960Z,100879.11
2018-10-12T11:06:48.854Z,100879.03
2018-10-12T11:09:15.799Z,100878.45
2018-10-12T11:11:42.683Z,100871.61
2018-10-12T11:14:10.572Z,100872.38
2018-10-12T11:16:37.669Z,100868.67
2018-10-12T11:19:04.647Z,100867.13
2018-10-12T11:21:31.607Z,100863.77
2018-10-12T11:23:58.559Z,100858.65
2018-10-12T11:26:25.616Z,100863.34
2018-10-12T11:28:52.502Z,100852.20
2018-10-12T11:31:31.041Z,100850.21
2018-10-12T11:34:00.077Z,100847.34
2018-10-12T11:36:27.594Z,100853.34
2018-10-12T11:38:54.535Z,100848.72
2018-10-12T11:41:21.491Z,100844.63
2018-10-12T11:43:55.527Z,100839.64
2018-10-12T11:46:23.463Z,100837.88
2018-10-12T11:48:50.415Z,100829.89
2018-10-12T11:51:17.667Z,100830.70
2018-10-12T11:53:44.592Z,100831.97
2018-10-12T11:56:11.500Z,100833.99
2018-10-12T11:58:38.376Z,100829.20
2018-10-12T12:01:05.751Z,100813.07
2018-10-12T12:03:32.625Z,100823.67
2018-10-12T12:06:00.616Z,100816.72
2018-10-12T12:08:28.539Z,100814.48
2018-10-12T12:10:55.466Z,100813.06
2018-10-12T12:13:22.404Z,100808.50
2018-10-12T12:15:49.319Z,100806.41
2018-10-12T12:18:17.204Z,100805.80
2018-10-12T12:20:44.079Z,100796.16
2018-10-12T12:23:12.986Z,100796.31
2018-10-12T12:25:40.919Z,100797.09
2018-10-12T12:28:07.815Z,100794.52
2018-10-12T12:30:34.710Z,100804.02
2018-10-12T12:33:04.675Z,100791.28
2018-10-12T12:35:31.819Z,100797.59
2018-10-12T12:37:59.948Z,100801.28
2018-10-12T12:40:26.822Z,100805.47
2018-10-12T12:42:53.708Z,100801.36
2018-10-12T12:45:20.572Z,100806.53
2018-10-12T12:47:57.905Z,100804.49
2018-10-12T12:50:24.741Z,100803.51
2018-10-12T12:52:51.707Z,100801.84
2018-10-12T12:55:18.659Z,100801.41
2018-10-12T12:57:45.531Z,100797.78
2018-10-12T13:00:12.501Z,100796.41
2018-10-12T13:02:39.412Z,100790.56
2018-10-12T13:05:06.399Z,100791.88
2018-10-12T13:07:33.400Z,100793.03
2018-10-12T13:10:00.307Z,100795.22
2018-10-12T13:12:27.276Z,100787.59
2018-10-12T13:14:54.235Z,100788.16
2018-10-12T13:17:22.140Z,100783.80
2018-10-12T13:19:49.126Z,100786.41
2018-10-12T13:22:16.082Z,100782.64
2018-10-12T13:24:42.987Z,100782.86
2018-10-12T13:27:10.262Z,100785.72
2018-10-12T13:29:37.171Z,100784.38
2018-10-12T13:32:04.112Z,100781.59
2018-10-12T13:34:31.062Z,100778.06
2018-10-12T13:36:57.983Z,100778.03
2018-10-12T13:39:25.015Z,100783.34
2018-10-12T13:41:51.908Z,100780.13
2018-10-12T13:44:18.821Z,100783.94
2018-10-12T13:46:45.842Z,100777.22
2018-10-12T13:49:12.639Z,100778.63
2018-10-12T13:51:39.615Z,100775.43
2018-10-12T13:54:06.632Z,100771.33
2018-10-12T13:56:33.576Z,100773.59
2018-10-12T13:59:00.605Z,100774.08
2018-10-12T14:01:27.561Z,100774.72
2018-10-12T14:03:57.819Z,100773.53
2018-10-12T14:06:24.752Z,100769.41
2018-10-12T14:09:01.360Z,100767.19
2018-10-12T14:11:30.391Z,100772.77
2018-10-12T14:13:57.401Z,100771.64
2018-10-12T14:16:24.340Z,100769.28
2018-10-12T14:18:51.464Z,100770.54
2018-10-12T14:21:18.242Z,100769.13
2018-10-12T14:23:45.183Z,100775.92
2018-10-12T14:26:12.159Z,100775.73
2018-10-12T14:28:39.147Z,100770.92
2018-10-12T14:31:06.129Z,100774.00
2018-10-12T14:33:33.073Z,100771.20
2018-10-12T14:36:00.163Z,100782.50
2018-10-12T14:38:27.138Z,100779.33
2018-10-12T14:40:54.074Z,100785.48
2018-10-12T14:43:21.048Z,100778.45
2018-10-12T14:45:48.245Z,100788.72
2018-10-12T14:48:16.188Z,100783.59
2018-10-12T14:50:44.146Z,100779.81
2018-10-12T14:53:11.224Z,100783.41
2018-10-12T14:55:38.081Z,100783.91
2018-10-12T14:58:05.110Z,100785.94
2018-10-12T15:00:32.011Z,100787.34
2018-10-12T15:02:59.049Z,100790.66
2018-10-12T15:05:27.008Z,100792.55
2018-10-12T15:07:57.008Z,100793.70
2018-10-12T15:10:24.042Z,100796.23
2018-10-12T15:12:50.968Z,100794.55
2018-10-12T15:15:22.646Z,100802.57
2018-10-12T15:17:51.574Z,100794.83
2018-10-12T15:20:19.995Z,100800.55
2018-10-12T15:22:46.947Z,100799.73
2018-10-12T15:25:18.001Z,100804.19
2018-10-12T15:27:45.140Z,100798.33
2018-10-12T15:30:12.550Z,100804.91
2018-10-12T15:32:39.666Z,100799.71
2018-10-12T15:35:07.642Z,100806.23
2018-10-12T15:37:34.561Z,100802.70
2018-10-12T15:40:03.528Z,100803.17
2018-10-12T15:42:30.482Z,100809.13
2018-10-12T15:44:57.468Z,100807.11
2018-10-12T15:47:24.481Z,100812.02
2018-10-12T15:49:51.643Z,100811.52
2018-10-12T15:52:18.575Z,100812.02
2018-10-12T15:54:45.663Z,100817.55
2018-10-12T15:57:17.043Z,100811.06
2018-10-12T15:59:45.235Z,100814.09
2018-10-12T16:02:12.145Z,100810.33
2018-10-12T16:04:43.160Z,100812.00
2018-10-12T16:07:10.164Z,100810.81
2018-10-12T16:09:39.204Z,100807.81
2018-10-12T16:12:06.147Z,100807.07
2018-10-12T16:14:36.402Z,100810.88
2018-10-12T16:17:03.324Z,100815.16
2018-10-12T16:19:30.294Z,100813.69
2018-10-12T16:21:58.227Z,100814.00
2018-10-12T16:24:26.259Z,100820.05
2018-10-12T16:26:53.157Z,100815.58
2018-10-12T16:29:20.164Z,100819.89
2018-10-12T16:31:48.132Z,100826.42
2018-10-12T16:34:15.090Z,100819.33
2018-10-12T16:36:42.105Z,100832.45
2018-10-12T16:39:09.738Z,100824.75
2018-10-12T16:41:37.208Z,100834.50
2018-10-12T16:44:04.148Z,100834.82
2018-10-12T16:46:31.019Z,100837.98
2018-10-12T16:49:00.126Z,100837.46
2018-10-12T16:51:26.951Z,100843.45
2018-10-12T16:53:53.960Z,100845.81
2018-10-12T16:56:22.864Z,100852.20
2018-10-12T16:58:49.808Z,100848.59
2018-10-12T17:01:16.787Z,100845.27
2018-10-12T17:03:43.763Z,100856.78
2018-10-12T17:06:10.728Z,100855.73
2018-10-12T17:08:37.753Z,100851.45
2018-10-12T17:11:05.853Z,100852.06
2018-10-12T17:13:34.874Z,100852.56
2018-10-12T17:16:01.879Z,100854.25
2018-10-12T17:18:28.873Z,100854.84
2018-10-12T17:20:57.674Z,100860.16
2018-10-12T17:23:24.593Z,100857.98
2018-10-12T17:25:51.501Z,100862.35
2018-10-12T17:28:18.366Z,100858.88
2018-10-12T17:30:48.954Z,100858.38
2018-10-12T17:33:15.903Z,100859.66
2018-10-12T17:35:49.941Z,100863.84
2018-10-12T17:38:16.907Z,100863.84
2018-10-12T17:40:43.907Z,100870.64
2018-10-12T17:43:14.126Z,100870.73
2018-10-12T17:45:45.569Z,100871.74
2018-10-12T17:48:15.963Z,100869.38
2018-10-12T17:50:42.987Z,100863.08
2018-10-12T17:53:09.929Z,100871.50
2018-10-12T17:55:45.021Z,100872.05
2018-10-12T17:58:22.887Z,100871.37
2018-10-12T18:00:49.858Z,100877.80
2018-10-12T18:03:16.876Z,100879.05
2018-10-12T18:05:43.798Z,100877.47
2018-10-12T18:08:10.689Z,100875.28
2018-10-12T18:10:37.678Z,100879.69
2018-10-12T18:13:04.545Z,100883.92
2018-10-12T18:15:31.488Z,100886.11
2018-10-12T18:18:00.737Z,100892.62
2018-10-12T18:20:27.664Z,100893.59
2018-10-12T18:22:55.597Z,100892.76
2018-10-12T18:25:23.579Z,100891.03
2018-10-12T18:27:50.535Z,100891.22
2018-10-12T18:30:17.519Z,100889.81
2018-10-12T18:32:44.479Z,100891.44
2018-10-12T18:35:12.544Z,100893.80
2018-10-12T18:37:39.542Z,100887.89
2018-10-12T18:40:06.604Z,100886.53
2018-10-12T18:42:33.486Z,100887.20
2018-10-12T18:45:03.914Z,100891.56
2018-10-12T18:47:31.847Z,100899.52
2018-10-12T18:49:58.817Z,100895.50
2018-10-12T18:52:26.251Z,100890.70
2018-10-12T18:54:53.173Z,100888.64
2018-10-12T18:57:20.118Z,100893.95
2018-10-12T18:59:54.574Z,100888.82
2018-10-12T19:02:21.439Z,100891.09
2018-10-12T19:04:49.563Z,100900.09
2018-10-12T19:07:16.503Z,100898.99
2018-10-12T19:09:43.523Z,100908.20
2018-10-12T19:12:10.571Z,100907.70
2018-10-12T19:14:37.511Z,100911.97
2018-10-12T19:17:06.911Z,100911.27
2018-10-12T19:19:35.928Z,100913.41
2018-10-12T19:22:10.127Z,100909.47
2018-10-12T19:24:37.014Z,100914.56
2018-10-12T19:27:03.947Z,100916.02
2018-10-12T19:29:30.923Z,100923.53
2018-10-12T19:31:57.942Z,100927.90
2018-10-12T19:34:24.875Z,100924.55
2018-10-12T19:36:51.938Z,100927.41
2018-10-12T19:39:19.017Z,100934.08
2018-10-12T19:41:46.016Z,100926.45
2018-10-12T19:44:12.960Z,100933.86
2018-10-12T19:46:39.984Z,100929.31
2018-10-12T19:49:06.914Z,100930.12
2018-10-12T19:51:33.855Z,100938.44
2018-10-12T19:54:01.728Z,100929.64
2018-10-12T19:56:29.635Z,100932.69
2018-10-12T19:58:56.516Z,100941.08
2018-10-12T20:01:23.375Z,100934.48
2018-10-12T20:03:50.309Z,100933.72
2018-10-12T20:06:24.486Z,100934.27
2018-10-12T20:09:00.493Z,100934.14
2018-10-12T20:11:27.609Z,100937.53
2018-10-12T20:13:54.610Z,100942.15
2018-10-12T20:16:21.558Z,100943.11
2018-10-12T20:18:48.414Z,100941.75
2018-10-12T20:21:15.333Z,100945.19
2018-10-12T20:23:42.341Z,100949.03
2018-10-12T20:26:12.860Z,100951.36
2018-10-12T20:28:39.813Z,100951.53
2018-10-12T20:31:07.302Z,100955.96
2018-10-12T20:33:34.231Z,100951.67
2018-10-12T20:36:01.200Z,100955.11
2018-10-12T20:38:28.203Z,100953.81
2018-10-12T20:40:56.899Z,100948.73
2018-10-12T20:43:23.873Z,100956.61
2018-10-12T20:45:50.828Z,100949.71
2018-10-12T20:48:17.938Z,100946.12
2018-10-12T20:50:45.890Z,100946.77
2018-10-12T20:53:12.861Z,100951.03
2018-10-12T20:55:39.852Z,100947.91
2018-10-12T20:58:16.267Z,100947.73
2018-10-12T21:00:44.352Z,100948.37
2018-10-12T21:03:11.259Z,100951.02
2018-10-12T21:05:38.222Z,100951.98
2018-10-12T21:08:05.250Z,100949.04
2018-10-12T21:10:32.146Z,100953.95
2018-10-12T21:12:59.147Z,100956.58
2018-10-12T21:15:26.091Z,100953.30
2018-10-12T21:17:53.048Z,100946.09
2018-10-12T21:20:20.860Z,100964.61
2018-10-12T21:22:47.826Z,100950.66
2018-10-12T21:25:14.878Z,100954.42
2018-10-12T21:27:42.829Z,100956.36
2018-10-12T21:30:09.775Z,100950.98
2018-10-12T21:32:36.764Z,100953.44
2018-10-12T21:35:03.803Z,100948.03
2018-10-12T21:37:30.700Z,100944.09
2018-10-12T21:39:57.703Z,100945.21
2018-10-12T21:42:24.605Z,100944.72
2018-10-12T21:44:51.683Z,100947.02
2018-10-12T21:47:18.551Z,100944.06
2018-10-12T21:49:45.456Z,100938.48
2018-10-12T21:52:12.404Z,100941.53
2018-10-12T21:54:39.479Z,100935.54
2018-10-12T21:57:06.551Z,100929.77
2018-10-12T21:59:33.563Z,100934.00
2018-10-12T22:02:00.535Z,100936.36
2018-10-12T22:04:27.409Z,100937.84
2018-10-12T22:06:54.316Z,100934.34
2018-10-12T22:09:21.183Z,100931.10
2018-10-12T22:11:50.155Z,100933.69
2018-10-12T22:14:17.043Z,100935.63
2018-10-12T22:16:43.959Z,100932.19
2018-10-12T22:19:10.997Z,100932.45
2018-10-12T22:21:37.899Z,100929.34
2018-10-12T22:24:04.923Z,100916.17
2018-10-12T22:26:31.783Z,100921.17
2018-10-12T22:28:58.755Z,100917.23
2018-10-12T22:31:27.619Z,100915.44
2018-10-12T22:33:54.587Z,100917.34
2018-10-12T22:36:21.603Z,100917.73
2018-10-12T22:38:50.474Z,100918.70
2018-10-12T22:41:21.019Z,100914.91
2018-10-12T22:43:47.904Z,100924.19
2018-10-12T22:46:15.819Z,100911.09
2018-10-12T22:48:42.769Z,100907.30
2018-10-12T22:51:12.865Z,100903.50
2018-10-12T22:53:39.729Z,100907.66
2018-10-12T22:56:06.607Z,100902.11
2018-10-12T22:58:33.522Z,100903.01
2018-10-12T23:01:00.483Z,100903.70
2018-10-12T23:03:27.443Z,100901.18
2018-10-12T23:05:54.320Z,100904.39
2018-10-12T23:08:21.316Z,100901.42
2018-10-12T23:10:48.287Z,100900.33
2018-10-12T23:13:16.311Z,100898.80
2018-10-12T23:15:44.240Z,100908.23
2018-10-12T23:18:11.265Z,100909.72
2018-10-12T23:20:38.128Z,100911.23
2018-10-12T23:23:06.979Z,100916.03
2018-10-12T23:25:33.911Z,100911.55
2018-10-12T23:28:02.015Z,100904.38
2018-10-12T23:30:28.955Z,100911.59
2018-10-12T23:33:07.531Z,100904.08
2018-10-12T23:35:38.023Z,100895.25
2018-10-12T23:38:04.927Z,100895.77
2018-10-12T23:40:31.895Z,100902.05
2018-10-12T23:42:58.904Z,100902.27
2018-10-12T23:45:25.760Z,100902.95
2018-10-12T23:47:52.698Z,100895.18
2018-10-12T23:50:26.740Z,100906.82
2018-10-12T23:52:53.699Z,100895.81
2018-10-12T23:55:21.563Z,100891.41
2018-10-12T23:57:52.152Z,100900.41
